Abel Santamaria Airport
MUSC : now visible

Airfield :











YOU CAN JOIN US ON...

 
LOGIN :

Register | Disclaimer

   EN    FR    IT 

 









Legend :    VFR   Marginal VFR   IFR   Intensive IFR   Very Intensive IFR
Visi :
Ceiling :
>= 8 km
>= 3000ft
5 to 8 km
1000 to 3000 ft
1500m to 5 km
500 to 1000 ft
800 to 1500m
200 to 500 ft
< 800m
< 200 ft
Symbols :   Thunderstorms  Fog  Heavy snow  Heavy precipitations  Wind > 20 kt






- Airport Elevation : 338 ft
- IATA code : SNU


MUSC - Abel Santamaria

CURRENT METAR :
  • 200050Z 08008KT 9000 FEW030 24/22 Q1020

EXPIRED METARs :
  • 192350Z 07009KT 9000 FEW030 25/21 Q1019
  • 192250Z 07013KT 9000 SCT025 26/21 Q1019

TAF MUSC
Valid from the 20 at 00:00 until the 21 at 00:00 UTC


192300Z 2000/2024 07010KT 9000 SCT020
BECMG 2001/2003 12005KT FEW020
BECMG 2015/2017 11010KT SCT020



MET'MAP, your aeronautical weather chart ! - Copyright ORBIFLY December 2007 - Disclaimer

ORBIFLY MET'MAP TEAM :

Programming & Development : Alexandra Zaïnal
Concept & original design : Baudouin d'Aumeries
Assistance for programming : Marc-Olivier Méhu
Technical & hardware support : Manuel Goepfert

Contact : metmap@orbifly.com




SOURCES & CREDITS :

   NOAA       Earth
Advisory